createdAt,value
2018-11-20T00:04:32.123Z,16.00
2018-11-20T00:09:50.487Z,12.25
2018-11-20T00:15:10.005Z,14.80
2018-11-20T00:20:35.912Z,13.75
2018-11-20T00:25:58.692Z,13.00
2018-11-20T00:31:17.262Z,15.25
2018-11-20T00:36:46.354Z,12.00
2018-11-20T00:42:42.878Z,14.00
2018-11-20T00:48:18.185Z,13.50
2018-11-20T00:53:41.540Z,12.20
2018-11-20T00:58:57.706Z,14.20
2018-11-20T01:04:30.768Z,12.00
2018-11-20T01:09:48.469Z,12.50
2018-11-20T01:15:10.478Z,13.20
2018-11-20T01:20:32.442Z,13.50
2018-11-20T01:25:58.680Z,14.20
2018-11-20T01:31:40.247Z,12.75
2018-11-20T01:37:02.731Z,16.00
2018-11-20T01:42:41.411Z,11.75
2018-11-20T01:48:16.565Z,12.40
2018-11-20T01:53:49.076Z,11.60
2018-11-20T01:59:03.718Z,13.75
2018-11-20T02:04:30.135Z,15.50
2018-11-20T02:09:51.895Z,15.75
2018-11-20T02:15:07.033Z,14.00
2018-11-20T02:20:24.561Z,12.80
2018-11-20T02:25:53.651Z,14.00
2018-11-20T02:31:15.572Z,14.60
2018-11-20T02:36:37.641Z,15.00
2018-11-20T02:41:59.684Z,14.00
2018-11-20T02:47:23.036Z,11.60
2018-11-20T02:52:56.834Z,13.50
2018-11-20T02:58:16.297Z,13.25
2018-11-20T03:03:51.504Z,13.00
2018-11-20T03:09:14.831Z,13.80
2018-11-20T03:14:26.780Z,12.25
2018-11-20T03:19:48.520Z,13.50
2018-11-20T03:25:17.449Z,14.25
2018-11-20T03:31:19.741Z,15.50
2018-11-20T03:36:43.059Z,12.75
2018-11-20T03:41:57.036Z,18.25
2018-11-20T03:47:26.009Z,13.60
2018-11-20T03:52:49.155Z,13.50
2018-11-20T03:58:15.392Z,14.20
2018-11-20T04:03:27.095Z,13.00
2018-11-20T04:08:42.888Z,12.00
2018-11-20T04:14:10.661Z,14.00
2018-11-20T04:19:28.045Z,13.50
2018-11-20T04:24:52.826Z,11.25
2018-11-20T04:30:55.675Z,14.80
2018-11-20T04:36:13.322Z,15.25
2018-11-20T04:41:27.890Z,12.20
2018-11-20T04:46:49.946Z,15.50
2018-11-20T04:52:13.267Z,13.75
2018-11-20T04:57:35.137Z,14.20
2018-11-20T05:02:57.167Z,14.75
2018-11-20T05:08:24.561Z,11.60
2018-11-20T05:13:42.533Z,14.20
2018-11-20T05:19:06.850Z,13.80
2018-11-20T05:24:28.670Z,13.00
2018-11-20T05:29:56.765Z,14.00
2018-11-20T05:35:09.592Z,14.00
2018-11-20T05:40:41.930Z,14.80
2018-11-20T05:46:08.124Z,14.75
2018-11-20T05:51:31.491Z,13.50
2018-11-20T05:56:46.708Z,13.75
2018-11-20T06:02:10.035Z,12.50
2018-11-20T06:07:32.444Z,14.25
2018-11-20T06:12:54.499Z,14.40
2018-11-20T06:18:23.771Z,15.00
2018-11-20T06:23:40.938Z,13.00
2018-11-20T06:28:55.277Z,14.25
2018-11-20T06:34:18.578Z,15.00
2018-11-20T06:40:00.079Z,15.50
2018-11-20T06:45:21.935Z,12.25
2018-11-20T06:51:17.753Z,15.40
2018-11-20T06:56:31.268Z,12.75
2018-11-20T07:01:53.395Z,15.00
2018-11-20T07:07:14.626Z,13.60
2018-11-20T07:12:35.980Z,14.00
2018-11-20T07:17:57.578Z,10.75
2018-11-20T07:23:35.416Z,14.00
2018-11-20T07:28:57.944Z,13.80
2018-11-20T07:34:23.178Z,15.00
2018-11-20T07:39:54.912Z,16.50
2018-11-20T07:45:32.532Z,15.00
2018-11-20T07:51:04.035Z,17.00
2018-11-20T07:56:23.034Z,16.75
2018-11-20T08:01:38.473Z,18.00
2018-11-20T08:07:01.029Z,17.00
2018-11-20T08:12:17.507Z,15.75
2018-11-20T08:17:52.078Z,17.00
2018-11-20T08:23:20.800Z,15.25
2018-11-20T08:28:43.907Z,16.20
2018-11-20T08:34:09.273Z,15.25
2018-11-20T08:39:40.981Z,19.00
2018-11-20T08:45:03.584Z,17.50
2018-11-20T08:50:20.483Z,19.80
2018-11-20T08:55:49.006Z,20.00
2018-11-20T09:01:11.569Z,17.00
2018-11-20T09:06:32.882Z,18.75
2018-11-20T09:12:13.804Z,17.00
2018-11-20T09:17:36.346Z,18.00
2018-11-20T09:22:58.880Z,16.00
2018-11-20T09:28:39.928Z,18.75
2018-11-20T09:34:02.489Z,20.00
2018-11-20T09:39:29.384Z,18.00
2018-11-20T09:45:02.301Z,21.25
2018-11-20T09:50:34.104Z,20.20
2018-11-20T09:56:11.640Z,16.25
2018-11-20T10:01:25.574Z,17.50
2018-11-20T10:06:53.824Z,16.00
2018-11-20T10:12:24.071Z,16.25
2018-11-20T10:17:55.298Z,16.25
2018-11-20T10:23:24.596Z,19.00
2018-11-20T10:28:45.813Z,17.40
2018-11-20T10:34:00.280Z,16.00
2018-11-20T10:39:25.464Z,16.20
2018-11-20T10:44:46.722Z,15.00
2018-11-20T10:50:15.402Z,48.40
2018-11-20T10:55:36.705Z,49.80
2018-11-20T11:00:57.771Z,48.25
2018-11-20T11:06:19.277Z,44.75
2018-11-20T11:11:31.389Z,39.20
2018-11-20T11:16:52.801Z,35.80
2018-11-20T11:22:14.077Z,39.50
2018-11-20T11:27:34.986Z,34.75
2018-11-20T11:33:02.001Z,32.40
2018-11-20T11:38:27.620Z,29.50
2018-11-20T11:43:58.216Z,32.00
2018-11-20T11:49:39.110Z,32.00
2018-11-20T11:55:00.326Z,32.25
2018-11-20T12:00:21.808Z,28.50
2018-11-20T12:05:59.316Z,29.25
2018-11-20T12:11:20.661Z,35.75
2018-11-20T12:16:51.894Z,37.00
2018-11-20T12:22:13.160Z,35.00
2018-11-20T12:27:34.022Z,32.75
2018-11-20T12:32:50.944Z,30.75
2018-11-20T12:38:19.899Z,31.00
2018-11-20T12:43:44.058Z,29.75
2018-11-20T12:49:18.753Z,30.75
2018-11-20T12:54:36.682Z,29.00
2018-11-20T12:59:57.982Z,30.60
2018-11-20T13:05:20.522Z,31.50
2018-11-20T13:10:41.626Z,28.00
2018-11-20T13:15:56.614Z,30.50
2018-11-20T13:21:11.084Z,31.50
2018-11-20T13:26:27.161Z,28.60
2018-11-20T13:31:51.356Z,26.50
2018-11-20T13:37:29.213Z,25.60
2018-11-20T13:42:51.785Z,29.00
2018-11-20T13:48:18.409Z,24.00
2018-11-20T13:53:46.836Z,27.00
2018-11-20T13:59:08.255Z,27.25
2018-11-20T14:04:29.705Z,22.25
2018-11-20T14:09:50.817Z,22.50
2018-11-20T14:15:19.602Z,21.50
2018-11-20T14:20:41.046Z,27.50
2018-11-20T14:26:14.679Z,27.00
2018-11-20T14:31:33.225Z,24.25
2018-11-20T14:36:54.686Z,25.00
2018-11-20T14:42:23.297Z,24.00
2018-11-20T14:48:04.345Z,23.80
2018-11-20T14:53:25.585Z,25.00
2018-11-20T14:58:46.835Z,27.00
2018-11-20T15:03:58.110Z,23.00
2018-11-20T15:09:23.880Z,22.25
2018-11-20T15:14:44.927Z,24.00
2018-11-20T15:20:16.225Z,23.75
2018-11-20T15:25:31.350Z,26.00
2018-11-20T15:31:01.775Z,20.80
2018-11-20T15:36:12.463Z,20.75
2018-11-20T15:41:33.507Z,20.40
2018-11-20T15:46:58.646Z,23.00
2018-11-20T15:52:19.056Z,21.40
2018-11-20T15:57:40.149Z,22.75
2018-11-20T16:02:55.986Z,20.00
2018-11-20T16:08:17.309Z,24.25
2018-11-20T16:13:55.236Z,19.00
2018-11-20T16:19:29.702Z,23.25
2018-11-20T16:24:55.119Z,19.00
2018-11-20T16:30:25.232Z,21.25
2018-11-20T16:35:47.772Z,21.20
2018-11-20T16:41:04.832Z,20.00
2018-11-20T16:46:30.566Z,17.50
2018-11-20T16:51:59.243Z,21.40
2018-11-20T16:57:24.527Z,19.00
2018-11-20T17:02:59.783Z,21.40
2018-11-20T17:08:22.306Z,19.00
2018-11-20T17:13:53.676Z,24.25
2018-11-20T17:19:10.216Z,19.00
2018-11-20T17:24:31.566Z,23.25
2018-11-20T17:29:55.469Z,19.20
2018-11-20T17:35:18.715Z,18.40
2018-11-20T17:40:41.231Z,21.80
2018-11-20T17:45:57.372Z,18.00
2018-11-20T17:51:15.755Z,18.60
2018-11-20T17:56:47.082Z,19.75
2018-11-20T18:02:07.241Z,19.00
2018-11-20T18:07:41.982Z,18.75
2018-11-20T18:13:13.492Z,18.50
2018-11-20T18:18:39.709Z,17.00
2018-11-20T18:24:01.160Z,18.00
2018-11-20T18:29:22.534Z,20.25
2018-11-20T18:34:34.365Z,18.00
2018-11-20T18:39:55.311Z,18.40
2018-11-20T18:45:23.059Z,19.25
2018-11-20T18:50:43.198Z,20.00
2018-11-20T18:56:04.232Z,16.75
2018-11-20T19:01:41.781Z,17.20
2018-11-20T19:06:54.143Z,18.75
2018-11-20T19:12:15.576Z,23.00
2018-11-20T19:17:50.066Z,17.60
2018-11-20T19:23:24.688Z,17.50
2018-11-20T19:28:49.107Z,20.00
2018-11-20T19:34:11.461Z,19.25
2018-11-20T19:39:36.715Z,20.20
2018-11-20T19:44:53.643Z,20.40
2018-11-20T19:50:31.410Z,17.75
2018-11-20T19:55:53.748Z,18.75
2018-11-20T20:01:15.091Z,20.75
2018-11-20T20:06:36.167Z,20.50
2018-11-20T20:12:07.858Z,23.25
2018-11-20T20:17:36.291Z,21.75
2018-11-20T20:22:49.320Z,20.00
2018-11-20T20:28:20.917Z,22.40
2018-11-20T20:33:41.903Z,21.25
2018-11-20T20:38:59.599Z,18.25
2018-11-20T20:44:28.123Z,20.40
2018-11-20T20:49:49.151Z,17.00
2018-11-20T20:55:11.674Z,21.25
2018-11-20T21:00:34.594Z,22.50
2018-11-20T21:05:57.118Z,23.80
2018-11-20T21:11:19.692Z,19.50
2018-11-20T21:16:40.769Z,21.25
2018-11-20T21:22:15.481Z,18.25
2018-11-20T21:27:36.746Z,19.50
2018-11-20T21:33:08.599Z,17.75
2018-11-20T21:38:29.884Z,22.25
2018-11-20T21:43:51.501Z,20.25
2018-11-20T21:49:23.202Z,19.40
2018-11-20T21:54:39.840Z,19.75
2018-11-20T22:00:06.506Z,19.00
2018-11-20T22:05:32.236Z,18.40
2018-11-20T22:10:53.337Z,18.00
2018-11-20T22:16:20.459Z,19.00
2018-11-20T22:21:35.489Z,19.60
2018-11-20T22:26:46.482Z,18.50
2018-11-20T22:32:19.829Z,17.75
2018-11-20T22:37:39.669Z,18.50
2018-11-20T22:43:01.166Z,17.25
2018-11-20T22:48:20.323Z,17.25
2018-11-20T22:53:41.459Z,17.75
2018-11-20T22:59:06.288Z,17.80
2018-11-20T23:04:37.746Z,17.80
2018-11-20T23:09:41.775Z,20.00
2018-11-20T23:14:45.504Z,16.60
2018-11-20T23:19:49.099Z,17.00
2018-11-20T23:24:52.874Z,16.00
2018-11-20T23:29:56.370Z,22.25
2018-11-20T23:34:59.973Z,18.50
2018-11-20T23:40:03.585Z,17.00
2018-11-20T23:45:12.920Z,18.00
2018-11-20T23:50:16.601Z,17.80
2018-11-20T23:55:20.089Z,18.75
